Hauptseite
METAR-TAF:

METAR-TAF

Flughäfen :

Flughafen Bastia

Bastia, Frankreich

Breite: 42-33N, Länge: 009-29E, Höhe: 8 m

Beobachtung

Neuester Wetterbericht von vor 39 Minuten, um 20:30 UTC
Wind 7 kt aus Südwest
Temperatur 8°C
Luftfeuchtigkeit 81%
Luftdruck 1019 hPa
Sichtweite 10 km oder mehr
Leicht bewölkt in der Höhe von 5200 ft

METAR: LFKB 162030Z AUTO 23007KT 9999 FEW052 08/05 Q1019 NOSIG

Zeit: 22:09 (21:09 UTC)

Prognose

Neuester Wetterbericht von vor 1 Stunde und 9 Minuten, um 20:00 UTC
Gültige Prognose vom 16 um 21 UTC bis 17 um 21 UTC
Wind 5 kt aus Südwest
Sichtweite 10 km oder mehr
Leicht bewölkt in der Höhe von 5000 ft
Übergehend zu
vom 17 um 10 UTC bis 17 um 12 UTC
Wind 6 kt aus Südost
Übergehend zu
vom 17 um 16 UTC bis 17 um 18 UTC
Wind 5 kt aus West/Südwest

TAF: LFKB 162000Z 1621/1721 23005KT 9999 FEW050 TX16/1713Z TN05/1703Z BECMG 1710/1712 14006KT BECMG 1716/1718 24005KT

Wetterbeobachtungen und Prognosen von mehr als 4000 Flughäfen (METAR und TAF Bericht).

Die verfügbaren Stationen werden durch gelbe und rote Markierungen auf der Karte dargestellt.

Führen Sie die Maus auf sie, um den Namen der Station zu sehen.

Darauf klicken, um die Beobachtung von Wetterbeobachtungen und Prognosen zu sehen.

Um die Karte zu ändern : klicken Sie auf den grünen Tasten mit einem schwarzen Kreuz Zum Vergrößern, auf den grünen Button mit einem Gedankenstrich zu verkleinern, oder auf die grünen Pfeile für benachbarte Karten.


METAR-TAF: